createdAt,value
2023-07-18T00:01:33.236Z,13.16
2023-07-18T00:03:59.969Z,13.38
2023-07-18T00:06:26.571Z,13.20
2023-07-18T00:08:53.176Z,13.04
2023-07-18T00:11:21.655Z,13.08
2023-07-18T00:13:48.357Z,12.96
2023-07-18T00:16:14.928Z,12.91
2023-07-18T00:18:41.999Z,12.95
2023-07-18T00:21:08.734Z,12.76
2023-07-18T00:23:35.412Z,12.58
2023-07-18T00:26:01.959Z,12.61
2023-07-18T00:28:29.513Z,12.53
2023-07-18T00:30:56.233Z,12.54
2023-07-18T00:33:23.756Z,12.59
2023-07-18T00:35:50.480Z,12.71
2023-07-18T00:38:17.541Z,12.63
2023-07-18T00:40:44.152Z,12.53
2023-07-18T00:43:15.991Z,12.49
2023-07-18T00:45:46.338Z,12.37
2023-07-18T00:48:13.073Z,12.41
2023-07-18T00:50:39.763Z,12.29
2023-07-18T00:53:07.185Z,12.23
2023-07-18T00:55:33.994Z,12.26
2023-07-18T00:58:04.433Z,12.28
2023-07-18T01:00:31.092Z,12.35
2023-07-18T01:02:57.741Z,12.60
2023-07-18T01:05:24.579Z,12.46
2023-07-18T01:07:51.586Z,12.65
2023-07-18T01:10:26.387Z,12.42
2023-07-18T01:12:56.187Z,12.22
2023-07-18T01:15:25.097Z,12.54
2023-07-18T01:17:52.584Z,12.16
2023-07-18T01:20:27.997Z,12.01
2023-07-18T01:22:59.909Z,12.12
2023-07-18T01:25:27.721Z,12.05
2023-07-18T01:27:57.250Z,12.14
2023-07-18T01:30:27.224Z,11.75
2023-07-18T01:32:55.037Z,11.81
2023-07-18T01:35:26.079Z,11.82
2023-07-18T01:37:55.909Z,11.86
2023-07-18T01:40:23.962Z,11.92
2023-07-18T01:42:53.887Z,11.94
2023-07-18T01:45:22.560Z,11.74
2023-07-18T01:47:51.151Z,11.61
2023-07-18T01:50:19.358Z,11.50
2023-07-18T01:52:48.186Z,11.54
2023-07-18T01:55:15.884Z,11.56
2023-07-18T01:57:45.720Z,11.36
2023-07-18T02:00:19.823Z,11.40
2023-07-18T02:02:49.945Z,11.30
2023-07-18T02:05:25.217Z,11.31
2023-07-18T02:07:55.437Z,11.30
2023-07-18T02:10:22.838Z,11.31
2023-07-18T02:12:52.398Z,11.23
2023-07-18T02:15:20.778Z,11.11
2023-07-18T02:17:48.473Z,11.08
2023-07-18T02:20:15.653Z,11.06
2023-07-18T02:22:45.944Z,10.95
2023-07-18T02:25:16.225Z,11.10
2023-07-18T02:27:42.821Z,10.94
2023-07-18T02:30:12.634Z,10.94
2023-07-18T02:32:40.862Z,10.88
2023-07-18T02:35:09.943Z,10.93
2023-07-18T02:37:37.906Z,10.89
2023-07-18T02:40:10.280Z,10.91
2023-07-18T02:42:39.122Z,10.91
2023-07-18T02:45:08.010Z,10.80
2023-07-18T02:47:34.828Z,10.75
2023-07-18T02:50:01.636Z,10.75
2023-07-18T02:52:28.151Z,10.82
2023-07-18T02:54:54.956Z,10.71
2023-07-18T02:57:21.616Z,10.77
2023-07-18T02:59:48.207Z,10.71
2023-07-18T03:02:14.777Z,10.56
2023-07-18T03:04:41.353Z,10.57
2023-07-18T03:07:08.303Z,10.58
2023-07-18T03:09:36.235Z,10.54
2023-07-18T03:12:03.033Z,10.53
2023-07-18T03:14:30.373Z,10.50
2023-07-18T03:16:57.342Z,10.51
2023-07-18T03:19:24.370Z,10.46
2023-07-18T03:21:51.085Z,10.59
2023-07-18T03:24:18.916Z,10.47
2023-07-18T03:26:46.194Z,10.44
2023-07-18T03:29:12.852Z,10.36
2023-07-18T03:31:40.755Z,10.41
2023-07-18T03:34:07.839Z,10.39
2023-07-18T03:36:38.233Z,9.96
2023-07-18T03:39:05.275Z,10.20
2023-07-18T03:41:31.970Z,10.16
2023-07-18T03:43:58.794Z,10.15
2023-07-18T03:46:25.436Z,9.85
2023-07-18T03:48:52.824Z,10.04
2023-07-18T03:51:20.069Z,10.17
2023-07-18T03:53:48.224Z,10.04
2023-07-18T03:56:16.318Z,9.76
2023-07-18T03:58:43.990Z,9.62
2023-07-18T04:01:12.735Z,9.75
2023-07-18T04:03:40.357Z,10.01
2023-07-18T04:06:07.741Z,9.96
2023-07-18T04:08:34.592Z,9.90
2023-07-18T04:11:01.301Z,9.87
2023-07-18T04:13:28.119Z,10.10
2023-07-18T04:15:56.197Z,10.33
2023-07-18T04:18:23.517Z,10.24
2023-07-18T04:20:50.575Z,10.26
2023-07-18T04:23:18.387Z,9.94
2023-07-18T04:26:03.938Z,9.91
2023-07-18T04:28:34.034Z,10.01
2023-07-18T04:31:01.322Z,10.13
2023-07-18T04:33:28.940Z,10.21
2023-07-18T04:35:55.447Z,10.20
2023-07-18T04:38:21.955Z,10.27
2023-07-18T04:40:49.206Z,10.50
2023-07-18T04:43:16.050Z,10.23
2023-07-18T04:45:46.465Z,10.42
2023-07-18T04:48:15.331Z,10.65
2023-07-18T04:50:44.243Z,10.66
2023-07-18T04:53:11.676Z,10.55
2023-07-18T04:55:40.286Z,10.57
2023-07-18T04:58:09.086Z,10.50
2023-07-18T05:00:36.755Z,10.59
2023-07-18T05:03:04.017Z,11.32
2023-07-18T05:05:31.156Z,11.05
2023-07-18T05:08:00.211Z,11.10
2023-07-18T05:10:27.097Z,11.23
2023-07-18T05:12:56.607Z,11.13
2023-07-18T05:15:24.780Z,10.97
2023-07-18T05:17:51.909Z,11.19
2023-07-18T05:20:19.877Z,11.28
2023-07-18T05:22:46.921Z,11.55
2023-07-18T05:25:16.226Z,11.72
2023-07-18T05:27:43.589Z,11.95
2023-07-18T05:30:20.585Z,11.77
2023-07-18T05:32:52.377Z,12.22
2023-07-18T05:35:18.942Z,12.28
2023-07-18T05:37:46.079Z,12.26
2023-07-18T05:40:13.465Z,12.58
2023-07-18T05:42:43.585Z,12.66
2023-07-18T05:45:10.673Z,12.46
2023-07-18T05:47:39.792Z,12.85
2023-07-18T05:50:08.053Z,12.94
2023-07-18T05:52:35.603Z,13.05
2023-07-18T05:55:05.156Z,13.20
2023-07-18T05:57:31.955Z,13.39
2023-07-18T05:59:58.558Z,13.58
2023-07-18T06:02:25.153Z,13.88
2023-07-18T06:04:52.040Z,14.00
2023-07-18T06:07:18.584Z,14.05
2023-07-18T06:09:45.211Z,14.36
2023-07-18T06:12:13.480Z,14.51
2023-07-18T06:14:40.395Z,14.69
2023-07-18T06:17:07.331Z,14.86
2023-07-18T06:19:34.050Z,15.06
2023-07-18T06:22:00.678Z,15.16
2023-07-18T06:24:27.305Z,15.25
2023-07-18T06:26:53.986Z,15.53
2023-07-18T06:29:21.749Z,15.64
2023-07-18T06:31:49.859Z,16.11
2023-07-18T06:34:18.447Z,16.16
2023-07-18T06:36:46.883Z,16.46
2023-07-18T06:39:15.054Z,16.78
2023-07-18T06:41:42.285Z,16.69
2023-07-18T06:44:10.163Z,16.97
2023-07-18T06:46:37.278Z,17.30
2023-07-18T06:49:04.216Z,17.45
2023-07-18T06:51:30.839Z,17.39
2023-07-18T06:53:57.387Z,17.84
2023-07-18T06:56:24.514Z,18.18
2023-07-18T06:58:51.278Z,18.36
2023-07-18T07:01:18.292Z,18.61
2023-07-18T07:03:45.291Z,18.92
2023-07-18T07:06:14.293Z,19.63
2023-07-18T07:08:40.963Z,19.67
2023-07-18T07:11:09.537Z,19.99
2023-07-18T07:13:37.586Z,20.11
2023-07-18T07:16:05.632Z,20.81
2023-07-18T07:18:32.700Z,20.87
2023-07-18T07:21:00.634Z,21.13
2023-07-18T07:23:27.466Z,21.33
2023-07-18T07:25:54.088Z,21.12
2023-07-18T07:28:20.836Z,21.38
2023-07-18T07:30:47.453Z,22.00
2023-07-18T07:33:14.144Z,22.11
2023-07-18T07:35:40.855Z,22.08
2023-07-18T07:38:07.997Z,22.30
2023-07-18T07:40:34.737Z,22.90
2023-07-18T07:43:01.316Z,22.42
2023-07-18T07:45:28.042Z,23.09
2023-07-18T07:47:54.738Z,23.34
2023-07-18T07:50:21.316Z,23.22
2023-07-18T07:52:47.947Z,23.62
2023-07-18T07:55:14.982Z,23.69
2023-07-18T07:57:42.311Z,23.56
2023-07-18T08:00:09.731Z,24.07
2023-07-18T08:02:36.293Z,23.74
2023-07-18T08:05:03.111Z,23.99
2023-07-18T08:07:30.181Z,24.22
2023-07-18T08:09:56.800Z,24.02
2023-07-18T08:12:23.386Z,23.15
2023-07-18T08:14:50.293Z,24.16
2023-07-18T08:17:18.236Z,23.21
2023-07-18T08:19:45.033Z,24.19
2023-07-18T08:22:11.764Z,24.62
2023-07-18T08:24:40.525Z,24.75
2023-07-18T08:27:07.990Z,24.37
2023-07-18T08:29:36.529Z,24.58
2023-07-18T08:32:04.433Z,24.17
2023-07-18T08:34:31.014Z,23.82
2023-07-18T08:36:57.590Z,23.34
2023-07-18T08:39:24.104Z,23.70
2023-07-18T08:41:51.202Z,23.45
2023-07-18T08:44:18.954Z,23.67
2023-07-18T08:46:47.887Z,23.83
2023-07-18T08:49:18.264Z,24.66
2023-07-18T08:51:46.858Z,23.93
2023-07-18T08:54:14.306Z,24.13
2023-07-18T08:56:43.921Z,23.97
2023-07-18T08:59:12.266Z,23.19
2023-07-18T09:01:48.940Z,23.57
2023-07-18T09:04:15.908Z,23.36
2023-07-18T09:06:50.755Z,23.36
2023-07-18T09:09:19.268Z,23.71
2023-07-18T09:12:05.684Z,24.25
2023-07-18T09:14:35.405Z,24.79
2023-07-18T09:17:06.092Z,25.10
2023-07-18T09:19:49.637Z,25.82
2023-07-18T09:22:18.335Z,26.05
2023-07-18T09:24:48.792Z,26.36
2023-07-18T09:27:19.507Z,26.70
2023-07-18T09:29:49.405Z,26.42
2023-07-18T09:32:19.251Z,27.16
2023-07-18T09:35:00.369Z,26.78
2023-07-18T09:37:28.289Z,26.61
2023-07-18T09:39:55.943Z,26.14
2023-07-18T09:42:25.532Z,25.12
2023-07-18T09:44:53.536Z,24.51
2023-07-18T09:47:21.336Z,24.66
2023-07-18T09:49:48.256Z,25.61
2023-07-18T09:52:17.241Z,25.52
2023-07-18T09:54:45.231Z,25.31
2023-07-18T09:57:14.111Z,25.93
2023-07-18T09:59:41.278Z,24.99
2023-07-18T10:02:12.141Z,25.27
2023-07-18T10:04:39.892Z,25.43
2023-07-18T10:07:10.532Z,25.60
2023-07-18T10:09:39.394Z,25.80
2023-07-18T10:12:08.620Z,24.87
2023-07-18T10:15:00.922Z,24.87
2023-07-18T10:17:36.335Z,25.42
2023-07-18T10:20:13.160Z,25.61
2023-07-18T10:22:58.585Z,25.08
2023-07-18T10:25:31.078Z,25.24
2023-07-18T10:28:01.039Z,25.61
2023-07-18T10:30:42.754Z,25.93
2023-07-18T10:33:09.999Z,25.50
2023-07-18T10:35:42.730Z,25.58
2023-07-18T10:38:09.549Z,25.91
2023-07-18T10:40:43.938Z,26.16
2023-07-18T10:43:18.013Z,25.93
2023-07-18T10:45:45.974Z,25.37
2023-07-18T10:48:17.554Z,25.33
2023-07-18T10:50:47.346Z,25.54
2023-07-18T10:53:20.159Z,25.82
2023-07-18T10:55:48.232Z,25.62
2023-07-18T10:58:19.806Z,25.49
2023-07-18T11:00:49.415Z,26.04
2023-07-18T11:03:21.106Z,27.10
2023-07-18T11:05:52.619Z,27.44
2023-07-18T11:08:29.750Z,26.23
2023-07-18T11:11:00.304Z,27.10
2023-07-18T11:13:30.272Z,27.36
2023-07-18T11:16:10.475Z,26.96
2023-07-18T11:18:43.406Z,26.74
2023-07-18T11:21:12.584Z,27.30
2023-07-18T11:23:41.668Z,27.85
2023-07-18T11:26:13.984Z,27.72
2023-07-18T11:28:44.756Z,28.47
2023-07-18T11:31:42.000Z,28.66
2023-07-18T11:34:10.342Z,28.50
2023-07-18T11:36:40.948Z,28.48
2023-07-18T11:39:23.437Z,29.66
2023-07-18T11:41:53.256Z,29.03
2023-07-18T11:44:27.890Z,28.69
2023-07-18T11:46:56.015Z,28.66
2023-07-18T11:49:38.754Z,28.33
2023-07-18T11:52:09.150Z,27.86
2023-07-18T11:54:36.866Z,27.67
2023-07-18T11:57:05.242Z,27.79
2023-07-18T11:59:32.457Z,27.87
2023-07-18T12:01:59.048Z,28.24
2023-07-18T12:04:25.593Z,28.54
2023-07-18T12:06:52.245Z,27.54
2023-07-18T12:09:18.824Z,26.55
2023-07-18T12:11:45.518Z,27.22
2023-07-18T12:14:12.236Z,27.76
2023-07-18T12:16:39.809Z,27.76
2023-07-18T12:19:06.702Z,27.85
2023-07-18T12:21:33.329Z,28.12
2023-07-18T12:23:59.831Z,27.56
2023-07-18T12:26:26.389Z,28.23
2023-07-18T12:28:55.220Z,28.53
2023-07-18T12:31:22.161Z,28.24
2023-07-18T12:33:48.921Z,29.30
2023-07-18T12:36:15.521Z,29.57
2023-07-18T12:38:42.049Z,30.09
2023-07-18T12:41:09.547Z,30.52
2023-07-18T12:43:36.123Z,30.30
2023-07-18T12:46:02.739Z,29.92
2023-07-18T12:48:29.230Z,29.25
2023-07-18T12:50:55.790Z,29.37
2023-07-18T12:53:22.276Z,29.34
2023-07-18T12:55:48.928Z,29.94
2023-07-18T12:58:15.458Z,29.56
2023-07-18T13:00:42.184Z,29.75
2023-07-18T13:03:08.939Z,29.98
2023-07-18T13:05:35.537Z,30.29
2023-07-18T13:08:02.080Z,30.71
2023-07-18T13:10:28.687Z,30.18
2023-07-18T13:12:55.282Z,29.88
2023-07-18T13:15:22.543Z,28.74
2023-07-18T13:17:49.515Z,28.40
2023-07-18T13:20:17.088Z,29.49
2023-07-18T13:22:43.840Z,29.50
2023-07-18T13:25:11.160Z,29.86
2023-07-18T13:27:39.799Z,29.70
2023-07-18T13:30:08.552Z,29.79
2023-07-18T13:32:35.171Z,29.82
2023-07-18T13:35:01.949Z,29.84
2023-07-18T13:37:28.518Z,29.62
2023-07-18T13:39:55.188Z,29.26
2023-07-18T13:42:21.757Z,29.34
2023-07-18T13:47:19.507Z,29.25
2023-07-18T13:52:15.552Z,29.36
2023-07-18T13:54:42.355Z,29.58
2023-07-18T13:57:08.903Z,29.61
2023-07-18T13:59:35.444Z,29.82
2023-07-18T14:02:02.041Z,29.36
2023-07-18T14:04:28.903Z,29.27
2023-07-18T14:06:55.480Z,29.27
2023-07-18T14:09:22.640Z,28.33
2023-07-18T14:11:49.432Z,28.73
2023-07-18T14:14:15.966Z,28.67
2023-07-18T14:16:42.495Z,28.44
2023-07-18T14:19:09.166Z,28.63
2023-07-18T14:21:35.782Z,28.42
2023-07-18T14:24:02.330Z,28.20
2023-07-18T14:26:28.921Z,28.47
2023-07-18T14:28:55.486Z,28.25
2023-07-18T14:31:22.263Z,27.03
2023-07-18T14:34:04.759Z,26.90
2023-07-18T14:36:32.603Z,26.60
2023-07-18T14:38:59.166Z,27.07
2023-07-18T14:41:25.690Z,27.38
2023-07-18T14:43:52.194Z,27.19
2023-07-18T14:46:19.105Z,27.41
2023-07-18T14:48:45.870Z,27.29
2023-07-18T14:51:12.476Z,27.08
2023-07-18T14:53:38.997Z,27.24
2023-07-18T14:56:05.540Z,27.32
2023-07-18T14:58:31.999Z,27.38
2023-07-18T15:00:58.666Z,27.12
2023-07-18T15:03:26.399Z,27.10
2023-07-18T15:05:53.032Z,27.04
2023-07-18T15:08:19.555Z,27.35
2023-07-18T15:10:46.320Z,27.15
2023-07-18T15:13:12.848Z,27.23
2023-07-18T15:15:41.147Z,26.95
2023-07-18T15:18:08.021Z,26.75
2023-07-18T15:20:34.554Z,26.79
2023-07-18T15:23:01.148Z,26.77
2023-07-18T15:25:32.214Z,26.63
2023-07-18T15:28:00.562Z,26.59
2023-07-18T15:30:28.547Z,26.81
2023-07-18T15:32:55.309Z,26.86
2023-07-18T15:35:22.106Z,27.24
2023-07-18T15:37:48.728Z,27.50
2023-07-18T15:40:15.234Z,26.70
2023-07-18T15:42:42.312Z,26.58
2023-07-18T15:45:09.728Z,26.66
2023-07-18T15:47:36.374Z,26.51
2023-07-18T15:50:03.089Z,26.52
2023-07-18T15:52:29.672Z,26.62
2023-07-18T15:54:56.327Z,26.56
2023-07-18T15:57:23.161Z,26.62
2023-07-18T15:59:49.886Z,26.64
2023-07-18T16:02:16.533Z,26.71
2023-07-18T16:04:43.193Z,26.71
2023-07-18T16:07:09.856Z,26.64
2023-07-18T16:09:56.664Z,26.62
2023-07-18T16:12:23.370Z,26.67
2023-07-18T16:14:50.258Z,26.59
2023-07-18T16:17:17.146Z,26.64
2023-07-18T16:19:45.640Z,26.44
2023-07-18T16:22:12.392Z,26.10
2023-07-18T16:24:40.639Z,26.16
2023-07-18T16:27:07.484Z,26.20
2023-07-18T16:29:34.330Z,26.39
2023-07-18T16:32:01.024Z,26.38
2023-07-18T16:34:27.645Z,26.47
2023-07-18T16:36:56.356Z,26.63
2023-07-18T16:39:22.920Z,26.66
2023-07-18T16:41:49.494Z,26.50
2023-07-18T16:44:16.415Z,26.47
2023-07-18T16:46:44.379Z,26.51
2023-07-18T16:49:10.976Z,26.27
2023-07-18T16:51:37.485Z,26.19
2023-07-18T16:54:04.223Z,26.30
2023-07-18T16:56:30.961Z,26.22
2023-07-18T16:58:57.716Z,26.07
2023-07-18T17:01:24.234Z,26.03
2023-07-18T17:03:50.987Z,26.10
2023-07-18T17:06:17.830Z,25.81
2023-07-18T17:08:44.669Z,25.77
2023-07-18T17:11:11.251Z,25.76
2023-07-18T17:13:38.163Z,25.75
2023-07-18T17:16:05.344Z,25.60
2023-07-18T17:18:31.869Z,25.41
2023-07-18T17:20:58.948Z,25.32
2023-07-18T17:23:25.532Z,25.38
2023-07-18T17:25:52.162Z,25.32
2023-07-18T17:28:18.671Z,25.18
2023-07-18T17:30:45.190Z,25.23
2023-07-18T17:33:12.098Z,25.28
2023-07-18T17:35:39.883Z,25.28
2023-07-18T17:38:06.838Z,25.22
2023-07-18T17:40:33.416Z,24.93
2023-07-18T17:43:05.349Z,24.79
2023-07-18T17:45:32.397Z,24.60
2023-07-18T17:47:59.656Z,24.60
2023-07-18T17:50:26.354Z,24.56
2023-07-18T17:52:52.919Z,24.42
2023-07-18T17:55:19.489Z,24.38
2023-07-18T17:57:46.047Z,24.28
2023-07-18T18:00:13.143Z,24.33
2023-07-18T18:02:40.030Z,24.25
2023-07-18T18:05:35.531Z,24.05
2023-07-18T18:08:06.013Z,23.99
2023-07-18T18:10:32.800Z,23.89
2023-07-18T18:12:59.398Z,23.76
2023-07-18T18:15:27.785Z,23.43
2023-07-18T18:17:55.429Z,23.41
2023-07-18T18:20:22.210Z,23.29
2023-07-18T18:22:48.735Z,23.11
2023-07-18T18:25:16.164Z,22.96
2023-07-18T18:27:43.961Z,23.01
2023-07-18T18:30:12.221Z,22.92
2023-07-18T18:32:38.902Z,22.92
2023-07-18T18:35:09.534Z,22.70
2023-07-18T18:37:39.486Z,22.78
2023-07-18T18:40:06.851Z,22.67
2023-07-18T18:42:34.695Z,22.48
2023-07-18T18:45:01.453Z,22.47
2023-07-18T18:47:28.098Z,22.45
2023-07-18T18:49:54.875Z,22.32
2023-07-18T18:52:21.509Z,22.14
2023-07-18T18:54:48.021Z,22.12
2023-07-18T18:57:15.374Z,22.22
2023-07-18T18:59:44.618Z,22.05
2023-07-18T19:02:14.764Z,21.81
2023-07-18T19:04:42.921Z,21.86
2023-07-18T19:07:09.516Z,21.89
2023-07-18T19:09:36.271Z,21.95
2023-07-18T19:12:03.040Z,21.77
2023-07-18T19:14:29.642Z,21.59
2023-07-18T19:16:56.317Z,21.47
2023-07-18T19:19:22.805Z,21.31
2023-07-18T19:21:49.325Z,21.27
2023-07-18T19:24:15.869Z,21.26
2023-07-18T19:26:42.623Z,21.11
2023-07-18T19:29:10.069Z,20.98
2023-07-18T19:31:36.584Z,20.89
2023-07-18T19:34:03.283Z,20.58
2023-07-18T19:36:29.892Z,20.77
2023-07-18T19:38:56.453Z,20.81
2023-07-18T19:41:24.324Z,20.73
2023-07-18T19:43:51.066Z,20.52
2023-07-18T19:46:17.748Z,20.36
2023-07-18T19:48:44.308Z,20.36
2023-07-18T19:51:10.843Z,20.27
2023-07-18T19:53:37.741Z,20.08
2023-07-18T19:56:04.599Z,19.89
2023-07-18T19:58:31.199Z,20.04
2023-07-18T20:00:58.239Z,19.84
2023-07-18T20:03:24.935Z,19.64
2023-07-18T20:05:51.710Z,19.80
2023-07-18T20:08:18.426Z,19.56
2023-07-18T20:10:45.066Z,19.52
2023-07-18T20:13:11.613Z,19.53
2023-07-18T20:15:38.265Z,19.41
2023-07-18T20:18:05.149Z,19.23
2023-07-18T20:20:31.958Z,19.05
2023-07-18T20:22:58.609Z,19.12
2023-07-18T20:25:25.508Z,19.21
2023-07-18T20:27:52.218Z,19.13
2023-07-18T20:30:21.039Z,19.06
2023-07-18T20:32:48.334Z,19.05
2023-07-18T20:35:15.681Z,18.80
2023-07-18T20:37:42.542Z,18.71
2023-07-18T20:40:11.154Z,18.67
2023-07-18T20:42:38.404Z,18.66
2023-07-18T20:45:05.850Z,18.35
2023-07-18T20:47:32.495Z,18.55
2023-07-18T20:49:59.127Z,18.57
2023-07-18T20:52:25.822Z,18.28
2023-07-18T20:54:52.542Z,18.39
2023-07-18T20:57:19.083Z,18.31
2023-07-18T20:59:45.660Z,18.34
2023-07-18T21:02:12.370Z,18.32
2023-07-18T21:04:38.977Z,18.30
2023-07-18T21:07:05.825Z,18.05
2023-07-18T21:09:32.498Z,17.98
2023-07-18T21:11:59.179Z,17.98
2023-07-18T21:14:25.710Z,18.00
2023-07-18T21:16:52.253Z,17.85
2023-07-18T21:19:20.004Z,17.75
2023-07-18T21:21:46.589Z,17.65
2023-07-18T21:24:15.126Z,17.67
2023-07-18T21:26:42.009Z,17.65
2023-07-18T21:29:08.594Z,17.44
2023-07-18T21:31:35.137Z,17.50
2023-07-18T21:34:01.989Z,17.54
2023-07-18T21:36:28.590Z,17.47
2023-07-18T21:38:55.098Z,17.24
2023-07-18T21:41:23.002Z,17.23
2023-07-18T21:43:49.635Z,17.13
2023-07-18T21:46:16.390Z,17.01
2023-07-18T21:48:43.127Z,16.85
2023-07-18T21:51:09.698Z,16.84
2023-07-18T21:53:36.319Z,16.75
2023-07-18T21:56:03.843Z,16.64
2023-07-18T21:58:30.511Z,16.73
2023-07-18T22:00:57.066Z,16.79
2023-07-18T22:03:23.753Z,16.70
2023-07-18T22:05:50.298Z,16.52
2023-07-18T22:08:16.868Z,16.29
2023-07-18T22:10:43.556Z,16.44
2023-07-18T22:13:10.262Z,16.39
2023-07-18T22:15:36.822Z,16.47
2023-07-18T22:18:15.866Z,16.31
2023-07-18T22:20:50.341Z,16.43
2023-07-18T22:23:16.826Z,16.43
2023-07-18T22:25:43.333Z,16.40
2023-07-18T22:28:10.741Z,16.24
2023-07-18T22:30:37.263Z,16.27
2023-07-18T22:33:04.150Z,16.30
2023-07-18T22:35:30.774Z,16.21
2023-07-18T22:37:57.953Z,16.26
2023-07-18T22:40:24.493Z,16.15
2023-07-18T22:42:50.995Z,15.77
2023-07-18T22:45:17.514Z,15.97
2023-07-18T22:47:44.068Z,16.03
2023-07-18T22:50:11.286Z,16.02
2023-07-18T22:52:37.780Z,15.83
2023-07-18T22:55:04.801Z,15.72
2023-07-18T22:57:31.332Z,15.71
2023-07-18T22:59:58.002Z,15.65
2023-07-18T23:02:24.764Z,15.64
2023-07-18T23:04:51.588Z,15.55
2023-07-18T23:07:18.165Z,15.46
2023-07-18T23:09:44.700Z,15.54
2023-07-18T23:12:12.471Z,15.45
2023-07-18T23:14:39.171Z,15.62
2023-07-18T23:17:05.999Z,15.48
2023-07-18T23:19:32.693Z,15.49
2023-07-18T23:21:59.297Z,15.36
2023-07-18T23:24:25.982Z,15.31
2023-07-18T23:26:52.601Z,15.23
2023-07-18T23:29:19.086Z,15.15
2023-07-18T23:31:45.600Z,15.05
2023-07-18T23:34:12.143Z,15.11
2023-07-18T23:36:38.618Z,15.14
2023-07-18T23:39:06.586Z,15.45
2023-07-18T23:41:33.115Z,15.02
2023-07-18T23:43:59.584Z,14.92
2023-07-18T23:46:26.224Z,14.94
2023-07-18T23:48:52.930Z,14.83
2023-07-18T23:51:19.954Z,14.80
2023-07-18T23:53:46.851Z,14.83
2023-07-18T23:56:13.418Z,14.81
2023-07-18T23:58:39.949Z,14.99
